• Motorflug
  • Segelflug
  • Ballon
  • Ultraleicht
 

Herzlich willkommen


Der Luftsportclub Hamm e.V. betreibt seit über 50 Jahren den Flugplatz Hamm-Lippewiesen in nahezu einmaliger Innenstadtlage. In vier Sportgruppen gehen die mehr als 350 Mitglieder ihren Hobbys Motorflug, Segelflug, Ultraleichtflug und Ballonfahrt nach.

Wir freuen uns auf Ihren Besuch am Flugplatz Hamm – egal ob zu Fuß oder mit dem Flugzeug!

Flugplatz wieder PPR


Ab Montag, 20. April lassen wir wieder vereinsfremde Landungen in Hamm zu.

Bitte beachten Sie, dass wir die Landegebühr sicherheitshalber nur über die AEROPS Bezahl-App annehmen! AeroPS Zahlungen in bar oder mit Karte werden nicht akzeptiert.

NOTAMs

Flugplatzwetter

09 °C

EDLH 300100Z AUTO 00000KT //// ////// 09/05 Q1025

Was ist das?

 

Angebot für Piloten

Besuchen Sie den Flugplatz Hamm und sparen die Landegebühr

 

Zu den Angeboten

Live-Webcam

Was ist gerade am Flugplatz Hamm los? Finden Sie es heraus - mit unserer Live-Webcam!

 

Kamera öffnen